createdAt,value
2018-03-25T00:01:21.733Z,33.27
2018-03-25T00:03:47.808Z,29.40
2018-03-25T00:06:13.825Z,27.97
2018-03-25T00:08:39.813Z,29.60
2018-03-25T00:11:05.844Z,28.83
2018-03-25T00:13:31.881Z,28.97
2018-03-25T00:15:57.913Z,28.87
2018-03-25T00:18:23.907Z,28.53
2018-03-25T00:20:49.909Z,26.40
2018-03-25T00:23:15.965Z,31.03
2018-03-25T00:25:41.974Z,25.07
2018-03-25T00:28:08.013Z,32.10
2018-03-25T00:30:34.113Z,26.47
2018-03-25T00:33:00.114Z,28.73
2018-03-25T00:35:26.046Z,24.17
2018-03-25T00:37:52.096Z,27.07
2018-03-25T00:40:18.255Z,21.03
2018-03-25T00:42:44.333Z,23.70
2018-03-25T00:45:10.386Z,22.67
2018-03-25T00:47:36.400Z,24.30
2018-03-25T00:50:02.381Z,28.77
2018-03-25T00:52:28.401Z,25.97
2018-03-25T00:54:54.462Z,27.70
2018-03-25T00:57:20.476Z,28.70
2018-03-25T00:59:46.491Z,25.13
2018-03-25T01:02:12.462Z,30.13
2018-03-25T01:04:38.890Z,26.17
2018-03-25T01:07:04.935Z,29.00
2018-03-25T01:09:31.001Z,24.10
2018-03-25T01:11:57.015Z,30.23
2018-03-25T01:14:23.197Z,27.80
2018-03-25T01:16:49.340Z,27.50
2018-03-25T01:19:15.364Z,32.03
2018-03-25T01:21:41.454Z,25.97
2018-03-25T01:24:07.437Z,27.00
2018-03-25T01:26:33.498Z,25.37
2018-03-25T01:28:59.454Z,26.40
2018-03-25T01:31:25.542Z,25.10
2018-03-25T01:33:51.529Z,27.97
2018-03-25T01:36:17.530Z,24.70
2018-03-25T01:38:43.507Z,25.30
2018-03-25T01:41:09.511Z,25.87
2018-03-25T01:43:35.771Z,27.40
2018-03-25T01:46:01.842Z,23.13
2018-03-25T01:48:27.857Z,27.57
2018-03-25T01:50:53.857Z,27.70
2018-03-25T01:53:19.910Z,25.83
2018-03-25T01:55:45.901Z,21.67
2018-03-25T01:58:11.921Z,23.87
2018-03-25T02:00:37.930Z,27.20
2018-03-25T02:03:03.976Z,27.10
2018-03-25T02:05:29.947Z,24.97
2018-03-25T02:07:55.961Z,23.90
2018-03-25T02:10:21.969Z,22.10
2018-03-25T02:12:48.037Z,27.53
2018-03-25T02:15:14.015Z,21.90
2018-03-25T02:17:40.040Z,24.40
2018-03-25T02:20:06.053Z,24.30
2018-03-25T02:22:32.018Z,22.37
2018-03-25T02:24:58.037Z,19.30
2018-03-25T02:27:24.261Z,28.93
2018-03-25T02:29:50.232Z,27.13
2018-03-25T02:32:16.260Z,25.20
2018-03-25T02:34:42.282Z,22.13
2018-03-25T02:37:08.305Z,21.03
2018-03-25T02:39:34.321Z,25.53
2018-03-25T02:42:00.381Z,22.10
2018-03-25T02:44:26.388Z,22.47
2018-03-25T02:46:52.537Z,28.23
2018-03-25T02:49:18.533Z,27.10
2018-03-25T02:51:44.541Z,22.33
2018-03-25T02:54:10.586Z,25.70
2018-03-25T02:56:36.594Z,22.60
2018-03-25T02:59:02.611Z,27.17
2018-03-25T03:01:28.630Z,31.27
2018-03-25T03:03:54.654Z,27.40
2018-03-25T03:06:20.674Z,20.10
2018-03-25T03:08:46.704Z,23.00
2018-03-25T03:11:12.718Z,24.27
2018-03-25T03:13:38.761Z,20.03
2018-03-25T03:16:04.804Z,20.57
2018-03-25T03:18:30.760Z,27.20
2018-03-25T03:20:56.830Z,21.00
2018-03-25T03:23:22.853Z,23.00
2018-03-25T03:25:48.838Z,28.50
2018-03-25T03:28:14.853Z,33.47
2018-03-25T03:30:40.871Z,20.87
2018-03-25T03:33:06.913Z,21.60
2018-03-25T03:35:32.966Z,24.03
2018-03-25T03:37:58.985Z,21.37
2018-03-25T03:40:25.026Z,24.27
2018-03-25T03:42:51.042Z,24.43
2018-03-25T03:45:17.034Z,20.03
2018-03-25T03:47:43.083Z,24.27
2018-03-25T03:50:09.066Z,26.50
2018-03-25T03:52:35.084Z,27.17
2018-03-25T03:55:01.128Z,22.03
2018-03-25T03:57:27.214Z,29.43
2018-03-25T03:59:53.212Z,20.00
2018-03-25T04:02:19.253Z,23.77
2018-03-25T04:04:45.340Z,23.70
2018-03-25T04:07:11.349Z,20.80
2018-03-25T04:09:37.370Z,25.07
2018-03-25T04:12:03.361Z,22.50
2018-03-25T04:14:29.381Z,30.00
2018-03-25T04:16:55.452Z,21.43
2018-03-25T04:19:21.489Z,24.23
2018-03-25T04:21:47.485Z,23.20
2018-03-25T04:24:13.508Z,24.50
2018-03-25T04:26:39.513Z,23.00
2018-03-25T04:29:05.513Z,25.10
2018-03-25T04:31:31.563Z,22.30
2018-03-25T04:33:57.545Z,26.87
2018-03-25T04:36:23.588Z,24.83
2018-03-25T04:38:49.537Z,25.83
2018-03-25T04:41:15.547Z,21.10
2018-03-25T04:43:41.481Z,23.10
2018-03-25T04:46:07.497Z,21.60
2018-03-25T04:48:33.512Z,26.50
2018-03-25T04:50:59.530Z,28.70
2018-03-25T04:53:25.554Z,22.17
2018-03-25T04:55:51.779Z,29.37
2018-03-25T04:58:17.808Z,24.67
2018-03-25T05:00:43.876Z,24.27
2018-03-25T05:03:09.894Z,23.30
2018-03-25T05:05:35.838Z,30.87
2018-03-25T05:08:01.867Z,21.80
2018-03-25T05:10:27.898Z,21.20
2018-03-25T05:12:53.954Z,25.70
2018-03-25T05:15:20.018Z,28.93
2018-03-25T05:17:46.073Z,40.00
2018-03-25T05:20:12.061Z,32.97
2018-03-25T05:22:38.057Z,37.27
2018-03-25T05:25:04.107Z,31.20
2018-03-25T05:27:30.080Z,27.67
2018-03-25T05:29:56.094Z,30.93
2018-03-25T05:32:22.102Z,38.90
2018-03-25T05:34:48.149Z,25.43
2018-03-25T05:37:14.152Z,29.50
2018-03-25T05:39:40.145Z,29.73
2018-03-25T05:42:06.105Z,23.13
2018-03-25T05:44:32.161Z,29.10
2018-03-25T05:46:58.161Z,29.47
2018-03-25T05:49:24.231Z,25.70
2018-03-25T05:51:50.241Z,36.93
2018-03-25T05:54:16.268Z,31.87
2018-03-25T05:56:42.390Z,29.63
2018-03-25T05:59:08.384Z,33.73
2018-03-25T06:01:34.433Z,24.50
2018-03-25T06:04:00.555Z,26.83
2018-03-25T06:06:26.595Z,30.63
2018-03-25T06:08:52.653Z,29.67
2018-03-25T06:11:18.775Z,27.30
2018-03-25T06:13:44.865Z,32.60
2018-03-25T06:16:10.799Z,40.07
2018-03-25T06:18:36.856Z,26.50
2018-03-25T06:21:02.926Z,30.20
2018-03-25T06:23:28.976Z,33.43
2018-03-25T06:25:54.957Z,28.30
2018-03-25T06:28:21.056Z,27.90
2018-03-25T06:30:47.080Z,34.80
2018-03-25T06:33:13.193Z,35.50
2018-03-25T06:35:39.261Z,36.00
2018-03-25T06:38:05.309Z,40.20
2018-03-25T06:40:31.372Z,36.43
2018-03-25T06:42:57.365Z,45.70
2018-03-25T06:45:23.393Z,55.17
2018-03-25T06:47:49.425Z,43.07
2018-03-25T06:50:15.470Z,42.20
2018-03-25T06:52:41.490Z,41.80
2018-03-25T06:55:07.591Z,40.23
2018-03-25T06:57:33.693Z,39.03
2018-03-25T06:59:59.692Z,47.87
2018-03-25T07:02:25.734Z,41.93
2018-03-25T07:04:51.767Z,41.43
2018-03-25T07:07:17.792Z,39.53
2018-03-25T07:09:43.766Z,43.30
2018-03-25T07:12:09.757Z,44.17
2018-03-25T07:14:35.738Z,53.47
2018-03-25T07:17:01.839Z,43.53
2018-03-25T07:19:27.853Z,45.53
2018-03-25T07:21:53.888Z,43.83
2018-03-25T07:24:20.282Z,42.67
2018-03-25T07:26:46.311Z,44.90
2018-03-25T07:29:12.334Z,42.40
2018-03-25T07:31:38.325Z,41.07
2018-03-25T07:34:04.364Z,38.97
2018-03-25T07:36:30.423Z,42.10
2018-03-25T07:38:56.434Z,41.33
2018-03-25T07:41:22.429Z,41.63
2018-03-25T07:43:48.522Z,42.47
2018-03-25T07:46:14.589Z,44.03
2018-03-25T07:48:40.605Z,41.80
2018-03-25T07:51:06.674Z,43.53
2018-03-25T07:53:32.695Z,39.13
2018-03-25T07:55:58.671Z,42.80
2018-03-25T07:58:24.740Z,40.40
2018-03-25T08:00:50.715Z,46.00
2018-03-25T08:03:16.739Z,46.73
2018-03-25T08:05:43.238Z,44.97
2018-03-25T08:08:09.321Z,53.90
2018-03-25T08:10:35.273Z,46.63
2018-03-25T08:13:01.281Z,45.90
2018-03-25T08:15:27.358Z,47.70
2018-03-25T08:17:53.402Z,55.70
2018-03-25T08:20:19.490Z,45.10
2018-03-25T08:22:45.662Z,50.27
2018-03-25T08:25:11.692Z,43.63
2018-03-25T08:27:37.957Z,46.30
2018-03-25T08:30:04.045Z,47.63
2018-03-25T08:32:30.070Z,47.80
2018-03-25T08:34:56.034Z,40.23
2018-03-25T08:37:22.005Z,44.93
2018-03-25T08:39:48.010Z,46.00
2018-03-25T08:42:14.060Z,43.13
2018-03-25T08:44:40.912Z,42.07
2018-03-25T08:47:06.983Z,44.17
2018-03-25T08:49:32.993Z,45.93
2018-03-25T08:51:58.997Z,45.40
2018-03-25T08:54:25.061Z,43.30
2018-03-25T08:56:51.079Z,38.33
2018-03-25T08:59:17.116Z,40.97
2018-03-25T09:01:43.129Z,47.17
2018-03-25T09:04:09.264Z,43.70
2018-03-25T09:06:35.296Z,38.33
2018-03-25T09:09:01.424Z,38.10
2018-03-25T09:11:27.549Z,44.00
2018-03-25T09:13:53.718Z,40.17
2018-03-25T09:16:20.134Z,35.87
2018-03-25T09:18:46.244Z,36.73
2018-03-25T09:21:12.329Z,39.57
2018-03-25T09:23:38.502Z,36.13
2018-03-25T09:26:04.520Z,34.90
2018-03-25T09:28:30.963Z,44.00
2018-03-25T09:30:57.017Z,37.67
2018-03-25T09:33:23.200Z,39.43
2018-03-25T09:35:49.353Z,34.80
2018-03-25T09:38:15.637Z,35.60
2018-03-25T09:40:41.718Z,34.47
2018-03-25T09:43:07.738Z,34.17
2018-03-25T09:45:33.763Z,33.30
2018-03-25T09:47:59.815Z,36.73
2018-03-25T09:50:25.918Z,36.07
2018-03-25T09:52:51.932Z,37.83
2018-03-25T09:55:17.966Z,33.60
2018-03-25T09:57:44.001Z,33.87
2018-03-25T10:00:10.037Z,35.03
2018-03-25T10:02:41.023Z,35.13
2018-03-25T10:05:07.073Z,33.30
2018-03-25T10:07:33.132Z,34.87
2018-03-25T10:09:59.188Z,29.20
2018-03-25T10:12:25.221Z,33.73
2018-03-25T10:14:51.262Z,35.93
2018-03-25T10:17:17.350Z,31.33
2018-03-25T10:19:43.485Z,31.20
2018-03-25T10:22:09.613Z,30.60
2018-03-25T10:24:35.710Z,31.00
2018-03-25T10:27:01.711Z,29.53
2018-03-25T10:29:27.764Z,31.73
2018-03-25T10:31:53.784Z,30.87
2018-03-25T10:34:19.826Z,30.20
2018-03-25T10:36:45.826Z,30.50
2018-03-25T10:39:11.870Z,26.57
2018-03-25T10:41:37.893Z,27.60
2018-03-25T10:44:03.962Z,29.70
2018-03-25T10:46:30.174Z,61.27
2018-03-25T10:48:56.196Z,34.70
2018-03-25T10:51:22.222Z,28.43
2018-03-25T10:53:48.303Z,29.13
2018-03-25T10:56:14.354Z,26.93
2018-03-25T10:58:40.374Z,26.77
2018-03-25T11:01:06.408Z,28.10
2018-03-25T11:03:32.382Z,26.90
2018-03-25T11:05:58.429Z,27.07
2018-03-25T11:08:24.440Z,30.13
2018-03-25T11:10:50.503Z,22.43
2018-03-25T11:13:16.449Z,22.97
2018-03-25T11:15:42.462Z,25.70
2018-03-25T11:18:08.514Z,27.87
2018-03-25T11:20:34.546Z,28.00
2018-03-25T11:23:00.597Z,26.23
2018-03-25T11:25:26.649Z,28.10
2018-03-25T11:27:52.669Z,26.93
2018-03-25T11:30:18.766Z,21.77
2018-03-25T11:32:44.785Z,28.23
2018-03-25T11:35:10.808Z,26.13
2018-03-25T11:37:36.864Z,30.33
2018-03-25T11:40:02.902Z,25.37
2018-03-25T11:42:29.010Z,25.00
2018-03-25T11:44:55.085Z,21.23
2018-03-25T11:47:21.113Z,21.90
2018-03-25T11:49:47.133Z,24.03
2018-03-25T11:52:13.131Z,29.93
2018-03-25T11:54:39.223Z,30.07
2018-03-25T11:57:05.279Z,22.27
2018-03-25T11:59:31.271Z,25.90
2018-03-25T12:01:57.314Z,26.80
2018-03-25T12:04:23.317Z,29.30
2018-03-25T12:06:49.369Z,24.73
2018-03-25T12:09:15.393Z,21.33
2018-03-25T12:11:41.921Z,22.83
2018-03-25T12:14:07.951Z,22.90
2018-03-25T12:16:33.966Z,27.87
2018-03-25T12:19:00.010Z,23.10
2018-03-25T12:21:26.109Z,27.33
2018-03-25T12:23:52.145Z,23.10
2018-03-25T12:26:18.101Z,23.03
2018-03-25T12:28:44.134Z,29.80
2018-03-25T12:31:10.141Z,25.37
2018-03-25T12:33:36.155Z,28.27
2018-03-25T12:36:02.233Z,24.13
2018-03-25T12:38:28.254Z,29.87
2018-03-25T12:40:54.264Z,23.97
2018-03-25T12:43:20.272Z,27.80
2018-03-25T12:45:46.304Z,24.60
2018-03-25T12:48:12.309Z,28.27
2018-03-25T12:50:38.950Z,28.03
2018-03-25T12:53:04.978Z,24.47
2018-03-25T12:55:31.045Z,32.60
2018-03-25T12:57:57.074Z,24.90
2018-03-25T13:00:23.098Z,27.00
2018-03-25T13:02:49.105Z,22.80
2018-03-25T13:05:15.168Z,25.70
2018-03-25T13:07:41.297Z,22.30
2018-03-25T13:10:07.355Z,21.80
2018-03-25T13:12:33.458Z,23.47
2018-03-25T13:14:59.486Z,26.93
2018-03-25T13:17:25.560Z,30.63
2018-03-25T13:19:51.581Z,21.97
2018-03-25T13:22:18.371Z,24.40
2018-03-25T13:24:44.412Z,29.80
2018-03-25T13:27:10.503Z,25.53
2018-03-25T13:29:36.589Z,22.83
2018-03-25T13:32:02.744Z,27.97
2018-03-25T13:34:28.788Z,23.63
2018-03-25T13:36:54.794Z,19.70
2018-03-25T13:39:20.845Z,23.23
2018-03-25T13:41:46.898Z,26.13
2018-03-25T13:44:13.001Z,25.57
2018-03-25T13:46:39.072Z,24.70
2018-03-25T13:49:05.065Z,25.90
2018-03-25T13:51:31.073Z,20.67
2018-03-25T13:53:57.235Z,21.73
2018-03-25T13:56:23.262Z,21.73
2018-03-25T13:58:49.338Z,22.87
2018-03-25T14:01:15.582Z,23.67
2018-03-25T14:03:42.006Z,21.30
2018-03-25T14:06:08.079Z,24.53
2018-03-25T14:08:34.125Z,21.93
2018-03-25T14:11:00.165Z,20.53
2018-03-25T14:13:26.205Z,20.00
2018-03-25T14:15:52.245Z,25.60
2018-03-25T14:18:18.271Z,20.90
2018-03-25T14:20:44.303Z,22.40
2018-03-25T14:23:10.379Z,24.43
2018-03-25T14:25:36.365Z,22.83
2018-03-25T14:28:02.424Z,21.73
2018-03-25T14:30:28.441Z,23.20
2018-03-25T14:32:54.498Z,24.57
2018-03-25T14:35:20.530Z,21.37
2018-03-25T14:37:46.551Z,24.37
2018-03-25T14:40:12.618Z,23.90
2018-03-25T14:42:38.649Z,21.43
2018-03-25T14:45:04.675Z,22.30
2018-03-25T14:47:30.789Z,21.20
2018-03-25T14:49:56.825Z,23.90
2018-03-25T14:52:22.962Z,20.70
2018-03-25T14:54:49.153Z,24.37
2018-03-25T14:57:15.182Z,23.83
2018-03-25T14:59:41.258Z,29.50
2018-03-25T15:02:07.270Z,24.33
2018-03-25T15:04:33.312Z,22.67
2018-03-25T15:06:59.418Z,25.93
2018-03-25T15:09:25.423Z,22.13
2018-03-25T15:11:51.533Z,25.50
2018-03-25T15:14:17.639Z,21.63
2018-03-25T15:16:43.679Z,20.07
2018-03-25T15:19:09.752Z,22.63
2018-03-25T15:21:36.196Z,22.50
2018-03-25T15:24:02.282Z,20.33
2018-03-25T15:26:28.311Z,22.70
2018-03-25T15:28:54.406Z,19.83
2018-03-25T15:31:20.486Z,20.07
2018-03-25T15:33:47.372Z,23.07
2018-03-25T15:36:13.414Z,21.30
2018-03-25T15:38:39.462Z,21.67
2018-03-25T15:41:05.582Z,24.50
2018-03-25T15:43:31.589Z,22.40
2018-03-25T15:45:57.602Z,21.70
2018-03-25T15:48:23.660Z,19.00
2018-03-25T15:50:49.721Z,20.63
2018-03-25T15:53:15.748Z,20.60
2018-03-25T15:55:41.962Z,27.30
2018-03-25T15:58:08.124Z,22.17
2018-03-25T16:00:34.109Z,23.17
2018-03-25T16:03:00.135Z,24.33
2018-03-25T16:05:26.165Z,19.83
2018-03-25T16:07:52.205Z,20.90
2018-03-25T16:10:18.188Z,25.77
2018-03-25T16:12:44.246Z,22.10
2018-03-25T16:15:10.298Z,22.60
2018-03-25T16:17:36.322Z,24.07
2018-03-25T16:20:02.386Z,24.53
2018-03-25T16:22:28.415Z,20.20
2018-03-25T16:24:54.529Z,23.73
2018-03-25T16:27:20.752Z,23.43
2018-03-25T16:29:46.815Z,26.57
2018-03-25T16:32:12.909Z,26.10
2018-03-25T16:34:39.010Z,18.50
2018-03-25T16:37:05.014Z,24.63
2018-03-25T16:39:31.097Z,24.90
2018-03-25T16:41:57.141Z,24.57
2018-03-25T16:44:23.232Z,23.60
2018-03-25T16:46:49.273Z,28.10
2018-03-25T16:49:15.472Z,25.70
2018-03-25T16:51:41.593Z,25.33
2018-03-25T16:54:07.607Z,26.40
2018-03-25T16:56:33.698Z,23.90
2018-03-25T16:58:59.723Z,24.10
2018-03-25T17:01:25.755Z,23.93
2018-03-25T17:03:51.780Z,28.47
2018-03-25T17:06:18.181Z,22.10
2018-03-25T17:08:44.169Z,21.30
2018-03-25T17:11:10.254Z,31.37
2018-03-25T17:13:36.338Z,41.60
2018-03-25T17:16:02.388Z,33.03
2018-03-25T17:18:28.443Z,31.80
2018-03-25T17:20:54.508Z,35.10
2018-03-25T17:23:20.615Z,30.97
2018-03-25T17:25:46.616Z,28.50
2018-03-25T17:28:12.774Z,28.03
2018-03-25T17:30:38.807Z,28.50
2018-03-25T17:33:04.842Z,20.93
2018-03-25T17:35:30.896Z,23.80
2018-03-25T17:37:56.923Z,20.80
2018-03-25T17:40:23.030Z,25.60
2018-03-25T17:42:49.044Z,24.50
2018-03-25T17:45:15.181Z,20.17
2018-03-25T17:47:41.225Z,20.20
2018-03-25T17:50:07.292Z,19.17
2018-03-25T17:52:33.350Z,24.73
2018-03-25T17:54:59.329Z,23.80
2018-03-25T17:57:25.385Z,22.47
2018-03-25T17:59:51.529Z,24.30
2018-03-25T18:02:17.587Z,17.43
2018-03-25T18:04:43.611Z,20.60
2018-03-25T18:07:09.648Z,23.60
2018-03-25T18:09:35.730Z,24.60
2018-03-25T18:12:01.753Z,26.07
2018-03-25T18:14:28.919Z,25.27
2018-03-25T18:16:54.977Z,29.97
2018-03-25T18:19:21.112Z,24.83
2018-03-25T18:21:47.110Z,28.50
2018-03-25T18:24:13.148Z,25.90
2018-03-25T18:26:39.252Z,21.87
2018-03-25T18:29:05.286Z,31.50
2018-03-25T18:31:31.325Z,26.00
2018-03-25T18:33:57.389Z,24.90
2018-03-25T18:36:23.426Z,23.70
2018-03-25T18:38:49.472Z,26.90
2018-03-25T18:41:15.534Z,32.60
2018-03-25T18:43:41.687Z,24.00
2018-03-25T18:46:07.702Z,25.23
2018-03-25T18:48:33.828Z,27.33
2018-03-25T18:50:59.869Z,27.10
2018-03-25T18:53:26.014Z,28.63
2018-03-25T18:55:52.046Z,25.50
2018-03-25T18:58:18.103Z,25.90
2018-03-25T19:00:44.205Z,31.17
2018-03-25T19:03:10.187Z,29.80
2018-03-25T19:05:36.326Z,32.27
2018-03-25T19:08:02.406Z,23.10
2018-03-25T19:10:28.441Z,23.13
2018-03-25T19:12:54.482Z,26.90
2018-03-25T19:15:20.524Z,23.17
2018-03-25T19:17:46.560Z,21.53
2018-03-25T19:20:12.643Z,23.17
2018-03-25T19:22:38.724Z,25.27
2018-03-25T19:25:04.911Z,26.50
2018-03-25T19:27:30.991Z,35.60
2018-03-25T19:29:57.870Z,35.73
2018-03-25T19:32:23.889Z,34.03
2018-03-25T19:34:49.937Z,19.07
2018-03-25T19:37:15.997Z,17.83
2018-03-25T19:40:12.319Z,26.13
2018-03-25T19:42:38.556Z,21.17
2018-03-25T19:45:04.591Z,19.23
2018-03-25T19:47:30.626Z,21.83
2018-03-25T19:49:56.701Z,23.80
2018-03-25T19:52:22.726Z,25.10
2018-03-25T19:54:48.924Z,29.17
2018-03-25T19:57:14.960Z,63.77
2018-03-25T19:59:41.029Z,75.97
2018-03-25T20:02:07.082Z,49.90
2018-03-25T20:04:33.971Z,39.93
2018-03-25T20:07:00.074Z,34.83
2018-03-25T20:09:26.127Z,36.30
2018-03-25T20:11:52.486Z,33.70
2018-03-25T20:14:18.590Z,38.43
2018-03-25T20:16:44.624Z,36.37
2018-03-25T20:19:10.629Z,34.70
2018-03-25T20:21:36.765Z,26.53
2018-03-25T20:24:02.858Z,27.50
2018-03-25T20:26:28.877Z,26.43
2018-03-25T20:28:54.883Z,24.03
2018-03-25T20:31:21.275Z,24.77
2018-03-25T20:33:47.325Z,25.77
2018-03-25T20:36:13.374Z,23.73
2018-03-25T20:38:39.577Z,23.30
2018-03-25T20:41:05.671Z,24.97
2018-03-25T20:43:42.767Z,24.27
2018-03-25T20:46:08.763Z,23.60
2018-03-25T20:48:34.821Z,24.93
2018-03-25T20:51:01.661Z,24.73
2018-03-25T20:53:27.777Z,26.00
2018-03-25T20:55:53.817Z,27.10
2018-03-25T20:58:19.861Z,24.40
2018-03-25T21:00:45.878Z,27.97
2018-03-25T21:03:11.866Z,28.80
2018-03-25T21:05:37.939Z,26.10
2018-03-25T21:08:03.962Z,24.83
2018-03-25T21:10:30.020Z,28.40
2018-03-25T21:12:56.030Z,24.23
2018-03-25T21:15:22.104Z,31.20
2018-03-25T21:17:48.110Z,24.97
2018-03-25T21:20:14.186Z,22.47
2018-03-25T21:22:40.227Z,22.93
2018-03-25T21:25:06.300Z,27.23
2018-03-25T21:27:32.453Z,25.47
2018-03-25T21:29:58.519Z,29.47
2018-03-25T21:32:25.089Z,23.83
2018-03-25T21:34:51.185Z,26.57
2018-03-25T21:37:17.270Z,26.90
2018-03-25T21:39:43.302Z,26.07
2018-03-25T21:42:09.303Z,21.37
2018-03-25T21:44:35.377Z,24.40
2018-03-25T21:47:01.412Z,29.30
2018-03-25T21:49:27.441Z,26.70
2018-03-25T21:51:53.469Z,27.30
2018-03-25T21:54:19.499Z,29.97
2018-03-25T21:56:46.589Z,29.13
2018-03-25T21:59:12.577Z,23.17
2018-03-25T22:01:38.653Z,26.70
2018-03-25T22:04:04.624Z,31.00
2018-03-25T22:06:30.649Z,27.60
2018-03-25T22:08:56.713Z,23.90
2018-03-25T22:11:22.770Z,29.37
2018-03-25T22:13:48.761Z,28.50
2018-03-25T22:16:15.019Z,32.00
2018-03-25T22:18:53.335Z,31.20
2018-03-25T22:21:19.350Z,27.20
2018-03-25T22:23:45.352Z,29.53
2018-03-25T22:26:11.346Z,28.97
2018-03-25T22:28:37.385Z,33.43
2018-03-25T22:31:03.477Z,31.57
2018-03-25T22:33:29.484Z,34.13
2018-03-25T22:35:55.458Z,29.30
2018-03-25T22:38:21.472Z,26.40
2018-03-25T22:40:47.482Z,24.80
2018-03-25T22:43:13.525Z,24.37
2018-03-25T22:45:39.534Z,25.47
2018-03-25T22:48:05.589Z,25.60
2018-03-25T22:50:31.583Z,23.67
2018-03-25T22:52:57.745Z,28.90
2018-03-25T22:55:23.861Z,27.23
2018-03-25T22:57:49.915Z,30.40
2018-03-25T23:00:15.898Z,27.20
2018-03-25T23:02:41.905Z,26.30
2018-03-25T23:05:14.937Z,29.30
2018-03-25T23:07:40.930Z,28.13
2018-03-25T23:10:06.957Z,29.60
2018-03-25T23:12:32.960Z,28.90
2018-03-25T23:14:58.992Z,22.23
2018-03-25T23:17:24.984Z,22.83
2018-03-25T23:19:51.013Z,25.90
2018-03-25T23:22:17.098Z,28.13
2018-03-25T23:24:43.198Z,30.43
2018-03-25T23:27:09.194Z,27.83
2018-03-25T23:29:35.274Z,24.67
2018-03-25T23:32:01.467Z,28.50
2018-03-25T23:34:27.514Z,25.93
2018-03-25T23:36:53.554Z,26.63
2018-03-25T23:39:19.570Z,24.03
2018-03-25T23:41:45.598Z,29.27
2018-03-25T23:44:11.592Z,29.10
2018-03-25T23:46:37.607Z,27.97
2018-03-25T23:49:03.613Z,28.30
2018-03-25T23:51:29.613Z,25.47
2018-03-25T23:53:55.649Z,25.43
2018-03-25T23:56:21.611Z,25.37
2018-03-25T23:58:47.602Z,28.17
